Terminal Aerodrome Forecast
Issued by NWS

Home | Current Version | Previous Version | Text Only | Print | Product List | Glossary On
Versions: 1 2 3 4 5 6 7 8 9 10 11 12 13 14 15 16 17 18 19 20 21 22 23
102
FTUS42 KMHX 200553
TAFOAJ
TAF
KOAJ 200553Z 2006/2106 00000KT 6SM BR SKC
     FM200800 VRB02KT 2SM BR SCT005
      TEMPO 2008/2012 1/2SM FG BKN005
     FM201300 VRB05KT P6SM SCT050
      AMD LTD TO CLD VIS AND WIND=

USA.gov is the U.S. government's official web portal to all federal, state and local government web resources and services.